sensor_id;sensor_type;location;lat;lon;timestamp;P1;durP1;ratioP1;P2;durP2;ratioP2
39822;SDS011;25499;53.958;10.970;2022-07-01T06:10:49;27.25;;;11.27;;
39822;SDS011;25499;53.958;10.970;2022-07-01T06:13:15;18.73;;;11.25;;
39822;SDS011;25499;53.958;10.970;2022-07-01T06:15:41;19.58;;;11.88;;
39822;SDS011;25499;53.958;10.970;2022-07-01T06:18:06;13.90;;;10.13;;
39822;SDS011;25499;53.958;10.970;2022-07-01T06:20:32;16.58;;;9.80;;
39822;SDS011;25499;53.958;10.970;2022-07-01T06:22:57;12.52;;;8.60;;
39822;SDS011;25499;53.958;10.970;2022-07-01T06:25:23;10.98;;;8.38;;
39822;SDS011;25499;53.958;10.970;2022-07-01T06:27:48;13.00;;;8.48;;
39822;SDS011;25499;53.958;10.970;2022-07-01T06:30:14;13.88;;;8.55;;
39822;SDS011;25499;53.958;10.970;2022-07-01T06:32:39;10.07;;;8.13;;
39822;SDS011;25499;53.958;10.970;2022-07-01T06:35:05;14.48;;;8.77;;
39822;SDS011;25499;53.958;10.970;2022-07-01T06:37:32;17.70;;;8.80;;
39822;SDS011;25499;53.958;10.970;2022-07-01T06:39:59;11.02;;;8.05;;
39822;SDS011;25499;53.958;10.970;2022-07-01T06:42:25;12.35;;;8.02;;
39822;SDS011;25499;53.958;10.970;2022-07-01T06:44:50;9.10;;;6.43;;
39822;SDS011;25499;53.958;10.970;2022-07-01T06:47:16;9.77;;;6.47;;
39822;SDS011;25499;53.958;10.970;2022-07-01T06:49:41;9.30;;;6.18;;
39822;SDS011;25499;53.958;10.970;2022-07-01T06:52:06;5.88;;;5.18;;
39822;SDS011;25499;53.958;10.970;2022-07-01T06:54:32;5.68;;;4.78;;
39822;SDS011;25499;53.958;10.970;2022-07-01T06:56:57;6.47;;;4.75;;
39822;SDS011;25499;53.958;10.970;2022-07-01T06:59:23;5.80;;;4.18;;
39822;SDS011;25499;53.958;10.970;2022-07-01T07:01:48;4.18;;;3.72;;
39822;SDS011;25499;53.958;10.970;2022-07-01T07:04:14;3.90;;;3.60;;
39822;SDS011;25499;53.958;10.970;2022-07-01T07:06:40;3.53;;;3.17;;
39822;SDS011;25499;53.958;10.970;2022-07-01T07:09:05;4.20;;;3.08;;
39822;SDS011;25499;53.958;10.970;2022-07-01T07:11:31;2.63;;;2.42;;
39822;SDS011;25499;53.958;10.970;2022-07-01T07:13:56;2.92;;;2.58;;
39822;SDS011;25499;53.958;10.970;2022-07-01T07:16:21;3.33;;;2.67;;
39822;SDS011;25499;53.958;10.970;2022-07-01T07:18:48;4.60;;;2.70;;
39822;SDS011;25499;53.958;10.970;2022-07-01T07:21:14;3.47;;;3.22;;
39822;SDS011;25499;53.958;10.970;2022-07-01T07:23:40;3.75;;;3.38;;
39822;SDS011;25499;53.958;10.970;2022-07-01T07:26:06;2.85;;;2.15;;
39822;SDS011;25499;53.958;10.970;2022-07-01T07:28:32;3.90;;;1.65;;
39822;SDS011;25499;53.958;10.970;2022-07-01T07:30:57;2.30;;;1.40;;
39822;SDS011;25499;53.958;10.970;2022-07-01T07:33:22;1.10;;;1.00;;
39822;SDS011;25499;53.958;10.970;2022-07-01T07:35:48;3.50;;;1.58;;
39822;SDS011;25499;53.958;10.970;2022-07-01T07:38:13;3.20;;;1.20;;
39822;SDS011;25499;53.958;10.970;2022-07-01T07:40:39;2.78;;;1.40;;
39822;SDS011;25499;53.958;10.970;2022-07-01T07:43:04;3.70;;;1.70;;
39822;SDS011;25499;53.958;10.970;2022-07-01T07:45:32;2.72;;;1.40;;
39822;SDS011;25499;53.958;10.970;2022-07-01T07:47:57;1.45;;;1.25;;
39822;SDS011;25499;53.958;10.970;2022-07-01T07:50:23;2.83;;;1.65;;
39822;SDS011;25499;53.958;10.970;2022-07-01T07:52:49;1.98;;;0.90;;
39822;SDS011;25499;53.958;10.970;2022-07-01T07:55:14;3.47;;;1.33;;
39822;SDS011;25499;53.958;10.970;2022-07-01T07:57:40;3.90;;;1.27;;
39822;SDS011;25499;53.958;10.970;2022-07-01T08:00:07;5.18;;;1.45;;
39822;SDS011;25499;53.958;10.970;2022-07-01T08:02:34;2.72;;;1.30;;
39822;SDS011;25499;53.958;10.970;2022-07-01T08:04:59;1.73;;;1.30;;
39822;SDS011;25499;53.958;10.970;2022-07-01T08:07:25;1.67;;;1.20;;
39822;SDS011;25499;53.958;10.970;2022-07-01T08:09:50;2.83;;;1.20;;
39822;SDS011;25499;53.958;10.970;2022-07-01T08:12:16;3.13;;;0.93;;
39822;SDS011;25499;53.958;10.970;2022-07-01T08:14:42;1.73;;;1.10;;
39822;SDS011;25499;53.958;10.970;2022-07-01T08:17:08;2.60;;;1.20;;
39822;SDS011;25499;53.958;10.970;2022-07-01T08:19:34;1.92;;;1.00;;
39822;SDS011;25499;53.958;10.970;2022-07-01T08:21:59;2.15;;;0.60;;
39822;SDS011;25499;53.958;10.970;2022-07-01T08:24:24;1.70;;;0.82;;
39822;SDS011;25499;53.958;10.970;2022-07-01T08:26:50;2.03;;;1.05;;
39822;SDS011;25499;53.958;10.970;2022-07-01T08:29:15;2.67;;;1.02;;
39822;SDS011;25499;53.958;10.970;2022-07-01T08:31:41;1.10;;;0.80;;
39822;SDS011;25499;53.958;10.970;2022-07-01T08:34:06;1.30;;;0.70;;
39822;SDS011;25499;53.958;10.970;2022-07-01T08:36:32;1.80;;;0.90;;
39822;SDS011;25499;53.958;10.970;2022-07-01T08:38:57;0.90;;;0.70;;
39822;SDS011;25499;53.958;10.970;2022-07-01T08:41:23;2.10;;;0.80;;
39822;SDS011;25499;53.958;10.970;2022-07-01T08:43:49;1.08;;;0.70;;
39822;SDS011;25499;53.958;10.970;2022-07-01T08:46:14;1.33;;;0.95;;
39822;SDS011;25499;53.958;10.970;2022-07-01T08:48:43;1.40;;;0.65;;
39822;SDS011;25499;53.958;10.970;2022-07-01T08:51:10;1.17;;;0.80;;
39822;SDS011;25499;53.958;10.970;2022-07-01T08:53:36;1.83;;;0.60;;
39822;SDS011;25499;53.958;10.970;2022-07-01T08:56:02;1.23;;;0.70;;
39822;SDS011;25499;53.958;10.970;2022-07-01T08:58:48;1.45;;;0.80;;
39822;SDS011;25499;53.958;10.970;2022-07-01T09:03:46;1.05;;;0.70;;
39822;SDS011;25499;53.958;10.970;2022-07-01T09:06:13;1.33;;;0.80;;
39822;SDS011;25499;53.958;10.970;2022-07-01T09:08:41;0.73;;;0.70;;
39822;SDS011;25499;53.958;10.970;2022-07-01T09:11:14;0.88;;;0.80;;
39822;SDS011;25499;53.958;10.970;2022-07-01T09:13:40;2.33;;;0.70;;
39822;SDS011;25499;53.958;10.970;2022-07-01T09:16:15;1.77;;;0.70;;
39822;SDS011;25499;53.958;10.970;2022-07-01T09:21:30;1.48;;;0.70;;
39822;SDS011;25499;53.958;10.970;2022-07-01T09:24:02;2.28;;;0.57;;
39822;SDS011;25499;53.958;10.970;2022-07-01T09:26:28;3.22;;;0.70;;
39822;SDS011;25499;53.958;10.970;2022-07-01T09:28:54;1.20;;;0.60;;
39822;SDS011;25499;53.958;10.970;2022-07-01T09:31:21;0.90;;;0.70;;
39822;SDS011;25499;53.958;10.970;2022-07-01T09:34:01;0.90;;;0.80;;
39822;SDS011;25499;53.958;10.970;2022-07-01T09:36:28;1.77;;;0.70;;
39822;SDS011;25499;53.958;10.970;2022-07-01T09:38:53;0.47;;;0.47;;
39822;SDS011;25499;53.958;10.970;2022-07-01T09:41:18;1.02;;;0.73;;
39822;SDS011;25499;53.958;10.970;2022-07-01T09:43:48;0.65;;;0.55;;
39822;SDS011;25499;53.958;10.970;2022-07-01T09:46:13;0.73;;;0.50;;
39822;SDS011;25499;53.958;10.970;2022-07-01T09:51:05;1.30;;;0.65;;
39822;SDS011;25499;53.958;10.970;2022-07-01T09:53:32;2.08;;;0.60;;
39822;SDS011;25499;53.958;10.970;2022-07-01T09:55:58;0.70;;;0.50;;
39822;SDS011;25499;53.958;10.970;2022-07-01T09:58:23;1.27;;;0.70;;
39822;SDS011;25499;53.958;10.970;2022-07-01T10:00:49;0.70;;;0.60;;
39822;SDS011;25499;53.958;10.970;2022-07-01T10:03:17;0.88;;;0.70;;
39822;SDS011;25499;53.958;10.970;2022-07-01T10:05:47;1.13;;;0.70;;
39822;SDS011;25499;53.958;10.970;2022-07-01T10:14:04;2.17;;;0.60;;
39822;SDS011;25499;53.958;10.970;2022-07-01T10:16:31;0.65;;;0.45;;
39822;SDS011;25499;53.958;10.970;2022-07-01T10:18:58;0.93;;;0.60;;
39822;SDS011;25499;53.958;10.970;2022-07-01T10:21:27;0.80;;;0.50;;
39822;SDS011;25499;53.958;10.970;2022-07-01T10:24:14;1.60;;;0.60;;
39822;SDS011;25499;53.958;10.970;2022-07-01T10:26:41;0.70;;;0.45;;
39822;SDS011;25499;53.958;10.970;2022-07-01T10:31:51;2.95;;;0.70;;
39822;SDS011;25499;53.958;10.970;2022-07-01T10:34:16;0.63;;;0.57;;
39822;SDS011;25499;53.958;10.970;2022-07-01T10:36:43;0.40;;;0.40;;
39822;SDS011;25499;53.958;10.970;2022-07-01T10:39:09;1.55;;;0.57;;
39822;SDS011;25499;53.958;10.970;2022-07-01T10:41:42;1.45;;;0.40;;
39822;SDS011;25499;53.958;10.970;2022-07-01T10:44:19;1.35;;;0.47;;
39822;SDS011;25499;53.958;10.970;2022-07-01T10:52:11;1.90;;;0.70;;
39822;SDS011;25499;53.958;10.970;2022-07-01T11:02:24;2.28;;;1.08;;
39822;SDS011;25499;53.958;10.970;2022-07-01T11:04:50;3.47;;;1.42;;
39822;SDS011;25499;53.958;10.970;2022-07-01T11:07:17;5.18;;;1.30;;
39822;SDS011;25499;53.958;10.970;2022-07-01T11:09:43;3.30;;;1.50;;
39822;SDS011;25499;53.958;10.970;2022-07-01T11:12:08;3.03;;;1.85;;
39822;SDS011;25499;53.958;10.970;2022-07-01T11:14:35;3.92;;;1.90;;
39822;SDS011;25499;53.958;10.970;2022-07-01T11:17:02;1.77;;;1.40;;
39822;SDS011;25499;53.958;10.970;2022-07-01T11:19:28;1.42;;;1.33;;
39822;SDS011;25499;53.958;10.970;2022-07-01T11:21:54;1.75;;;1.30;;
39822;SDS011;25499;53.958;10.970;2022-07-01T11:24:20;2.75;;;1.40;;
39822;SDS011;25499;53.958;10.970;2022-07-01T11:26:46;1.63;;;1.35;;
39822;SDS011;25499;53.958;10.970;2022-07-01T11:29:13;2.60;;;1.38;;
39822;SDS011;25499;53.958;10.970;2022-07-01T11:31:39;3.25;;;1.00;;
39822;SDS011;25499;53.958;10.970;2022-07-01T11:34:05;1.45;;;0.90;;
39822;SDS011;25499;53.958;10.970;2022-07-01T11:36:32;1.10;;;0.80;;
39822;SDS011;25499;53.958;10.970;2022-07-01T11:39:19;2.63;;;0.80;;
39822;SDS011;25499;53.958;10.970;2022-07-01T11:41:59;6.65;;;1.05;;
39822;SDS011;25499;53.958;10.970;2022-07-01T11:44:33;2.58;;;0.90;;
39822;SDS011;25499;53.958;10.970;2022-07-01T11:47:00;3.28;;;0.90;;
39822;SDS011;25499;53.958;10.970;2022-07-01T11:49:26;3.72;;;0.88;;
39822;SDS011;25499;53.958;10.970;2022-07-01T11:51:58;1.67;;;0.73;;
39822;SDS011;25499;53.958;10.970;2022-07-01T11:54:25;2.45;;;0.95;;
39822;SDS011;25499;53.958;10.970;2022-07-01T11:56:51;2.30;;;0.90;;
39822;SDS011;25499;53.958;10.970;2022-07-01T11:59:17;1.92;;;1.10;;
39822;SDS011;25499;53.958;10.970;2022-07-01T12:01:49;5.40;;;1.10;;
39822;SDS011;25499;53.958;10.970;2022-07-01T12:04:16;3.72;;;0.90;;
39822;SDS011;25499;53.958;10.970;2022-07-01T12:06:41;1.88;;;1.00;;
39822;SDS011;25499;53.958;10.970;2022-07-01T12:09:11;4.97;;;0.93;;
39822;SDS011;25499;53.958;10.970;2022-07-01T12:14:03;2.10;;;0.87;;
39822;SDS011;25499;53.958;10.970;2022-07-01T12:16:36;2.03;;;0.90;;
39822;SDS011;25499;53.958;10.970;2022-07-01T12:19:03;2.00;;;0.73;;
39822;SDS011;25499;53.958;10.970;2022-07-01T12:21:29;1.77;;;0.70;;
39822;SDS011;25499;53.958;10.970;2022-07-01T12:26:33;3.42;;;0.73;;
39822;SDS011;25499;53.958;10.970;2022-07-01T12:28:58;3.42;;;1.08;;
39822;SDS011;25499;53.958;10.970;2022-07-01T12:31:23;0.90;;;0.60;;
39822;SDS011;25499;53.958;10.970;2022-07-01T12:33:49;1.02;;;0.77;;
39822;SDS011;25499;53.958;10.970;2022-07-01T12:36:16;1.33;;;0.60;;
39822;SDS011;25499;53.958;10.970;2022-07-01T12:38:42;3.55;;;0.88;;
39822;SDS011;25499;53.958;10.970;2022-07-01T12:43:55;2.13;;;0.77;;
39822;SDS011;25499;53.958;10.970;2022-07-01T12:46:27;2.75;;;0.80;;
39822;SDS011;25499;53.958;10.970;2022-07-01T12:48:54;4.03;;;1.00;;
39822;SDS011;25499;53.958;10.970;2022-07-01T12:51:19;2.20;;;0.88;;
39822;SDS011;25499;53.958;10.970;2022-07-01T12:53:44;2.95;;;0.98;;
39822;SDS011;25499;53.958;10.970;2022-07-01T12:56:20;1.90;;;0.90;;
39822;SDS011;25499;53.958;10.970;2022-07-01T12:58:48;2.97;;;1.00;;
39822;SDS011;25499;53.958;10.970;2022-07-01T13:01:13;3.83;;;0.90;;
39822;SDS011;25499;53.958;10.970;2022-07-01T13:03:38;1.95;;;0.95;;
39822;SDS011;25499;53.958;10.970;2022-07-01T13:06:04;3.05;;;1.13;;
39822;SDS011;25499;53.958;10.970;2022-07-01T13:08:29;2.40;;;0.93;;
39822;SDS011;25499;53.958;10.970;2022-07-01T13:10:54;2.13;;;0.70;;
39822;SDS011;25499;53.958;10.970;2022-07-01T13:13:20;3.78;;;0.95;;
39822;SDS011;25499;53.958;10.970;2022-07-01T13:15:46;3.33;;;0.88;;
39822;SDS011;25499;53.958;10.970;2022-07-01T13:18:12;2.38;;;1.00;;
39822;SDS011;25499;53.958;10.970;2022-07-01T13:20:41;1.73;;;0.80;;
39822;SDS011;25499;53.958;10.970;2022-07-01T13:23:07;2.38;;;0.82;;
39822;SDS011;25499;53.958;10.970;2022-07-01T13:25:33;1.20;;;0.85;;
39822;SDS011;25499;53.958;10.970;2022-07-01T13:27:59;2.92;;;0.80;;
39822;SDS011;25499;53.958;10.970;2022-07-01T13:30:24;1.63;;;0.80;;
39822;SDS011;25499;53.958;10.970;2022-07-01T13:32:49;4.43;;;0.88;;
39822;SDS011;25499;53.958;10.970;2022-07-01T13:35:18;1.05;;;0.70;;
39822;SDS011;25499;53.958;10.970;2022-07-01T13:37:44;1.90;;;0.77;;
39822;SDS011;25499;53.958;10.970;2022-07-01T13:40:09;3.10;;;0.80;;
39822;SDS011;25499;53.958;10.970;2022-07-01T13:42:35;1.15;;;0.70;;
39822;SDS011;25499;53.958;10.970;2022-07-01T13:45:01;2.53;;;0.90;;
39822;SDS011;25499;53.958;10.970;2022-07-01T13:47:27;3.72;;;1.10;;
39822;SDS011;25499;53.958;10.970;2022-07-01T13:49:53;2.13;;;1.00;;
39822;SDS011;25499;53.958;10.970;2022-07-01T13:52:18;2.03;;;0.88;;
39822;SDS011;25499;53.958;10.970;2022-07-01T13:54:43;1.88;;;0.90;;
39822;SDS011;25499;53.958;10.970;2022-07-01T13:57:09;1.73;;;0.70;;
39822;SDS011;25499;53.958;10.970;2022-07-01T13:59:34;3.03;;;0.70;;
39822;SDS011;25499;53.958;10.970;2022-07-01T14:02:00;1.50;;;0.70;;
39822;SDS011;25499;53.958;10.970;2022-07-01T14:04:25;4.82;;;1.10;;
39822;SDS011;25499;53.958;10.970;2022-07-01T14:06:51;1.60;;;0.60;;
39822;SDS011;25499;53.958;10.970;2022-07-01T14:09:16;4.35;;;0.60;;
39822;SDS011;25499;53.958;10.970;2022-07-01T14:11:41;1.35;;;0.55;;
39822;SDS011;25499;53.958;10.970;2022-07-01T14:14:07;1.17;;;0.70;;
39822;SDS011;25499;53.958;10.970;2022-07-01T14:16:32;3.85;;;0.80;;
39822;SDS011;25499;53.958;10.970;2022-07-01T14:18:58;2.67;;;0.70;;
39822;SDS011;25499;53.958;10.970;2022-07-01T14:21:23;2.90;;;0.80;;
39822;SDS011;25499;53.958;10.970;2022-07-01T14:23:49;4.05;;;0.77;;
39822;SDS011;25499;53.958;10.970;2022-07-01T14:26:15;2.08;;;0.75;;
39822;SDS011;25499;53.958;10.970;2022-07-01T14:28:41;2.38;;;0.80;;
39822;SDS011;25499;53.958;10.970;2022-07-01T14:31:07;2.47;;;0.80;;
39822;SDS011;25499;53.958;10.970;2022-07-01T14:33:32;4.97;;;0.70;;
39822;SDS011;25499;53.958;10.970;2022-07-01T14:35:58;5.50;;;1.50;;
39822;SDS011;25499;53.958;10.970;2022-07-01T14:38:23;3.80;;;1.05;;
39822;SDS011;25499;53.958;10.970;2022-07-01T14:40:49;0.90;;;0.65;;
39822;SDS011;25499;53.958;10.970;2022-07-01T14:43:14;5.97;;;1.23;;
39822;SDS011;25499;53.958;10.970;2022-07-01T14:45:40;2.55;;;0.70;;
39822;SDS011;25499;53.958;10.970;2022-07-01T14:48:07;2.78;;;0.90;;
39822;SDS011;25499;53.958;10.970;2022-07-01T14:50:33;3.08;;;0.98;;
39822;SDS011;25499;53.958;10.970;2022-07-01T14:52:59;2.42;;;0.70;;
39822;SDS011;25499;53.958;10.970;2022-07-01T14:55:24;2.38;;;0.80;;
39822;SDS011;25499;53.958;10.970;2022-07-01T14:57:50;5.10;;;0.80;;
39822;SDS011;25499;53.958;10.970;2022-07-01T15:00:15;3.55;;;0.70;;
39822;SDS011;25499;53.958;10.970;2022-07-01T15:02:40;2.63;;;0.80;;
39822;SDS011;25499;53.958;10.970;2022-07-01T15:05:06;1.50;;;0.75;;
39822;SDS011;25499;53.958;10.970;2022-07-01T15:07:32;3.85;;;0.90;;
39822;SDS011;25499;53.958;10.970;2022-07-01T15:09:57;0.80;;;0.50;;
39822;SDS011;25499;53.958;10.970;2022-07-01T15:12:26;3.45;;;0.60;;
39822;SDS011;25499;53.958;10.970;2022-07-01T15:14:51;6.53;;;0.93;;
39822;SDS011;25499;53.958;10.970;2022-07-01T15:17:16;3.60;;;0.90;;
39822;SDS011;25499;53.958;10.970;2022-07-01T15:19:42;2.65;;;0.77;;
39822;SDS011;25499;53.958;10.970;2022-07-01T15:22:07;4.32;;;0.95;;
39822;SDS011;25499;53.958;10.970;2022-07-01T15:24:33;3.63;;;0.80;;
39822;SDS011;25499;53.958;10.970;2022-07-01T15:26:59;2.47;;;0.80;;
39822;SDS011;25499;53.958;10.970;2022-07-01T15:29:26;2.35;;;0.60;;
39822;SDS011;25499;53.958;10.970;2022-07-01T15:31:51;3.25;;;0.98;;
39822;SDS011;25499;53.958;10.970;2022-07-01T15:34:17;5.03;;;1.10;;
39822;SDS011;25499;53.958;10.970;2022-07-01T15:36:43;2.55;;;0.80;;
39822;SDS011;25499;53.958;10.970;2022-07-01T15:39:08;4.10;;;1.05;;
39822;SDS011;25499;53.958;10.970;2022-07-01T15:41:34;3.38;;;0.77;;
39822;SDS011;25499;53.958;10.970;2022-07-01T15:44:00;3.40;;;1.00;;
39822;SDS011;25499;53.958;10.970;2022-07-01T15:46:25;1.92;;;0.90;;
39822;SDS011;25499;53.958;10.970;2022-07-01T15:48:51;3.45;;;0.90;;
39822;SDS011;25499;53.958;10.970;2022-07-01T15:51:16;3.20;;;1.02;;
39822;SDS011;25499;53.958;10.970;2022-07-01T15:53:42;3.67;;;1.00;;
39822;SDS011;25499;53.958;10.970;2022-07-01T15:56:07;1.95;;;1.00;;
39822;SDS011;25499;53.958;10.970;2022-07-01T15:58:32;1.48;;;0.80;;
39822;SDS011;25499;53.958;10.970;2022-07-01T16:00:58;4.57;;;1.00;;
39822;SDS011;25499;53.958;10.970;2022-07-01T16:03:25;2.88;;;1.20;;
39822;SDS011;25499;53.958;10.970;2022-07-01T16:05:51;2.42;;;1.10;;
39822;SDS011;25499;53.958;10.970;2022-07-01T16:08:28;4.15;;;1.27;;
39822;SDS011;25499;53.958;10.970;2022-07-01T16:11:19;2.40;;;1.10;;
39822;SDS011;25499;53.958;10.970;2022-07-01T16:13:48;2.17;;;1.30;;
39822;SDS011;25499;53.958;10.970;2022-07-01T16:16:19;3.85;;;1.30;;
39822;SDS011;25499;53.958;10.970;2022-07-01T16:18:47;4.25;;;1.20;;
39822;SDS011;25499;53.958;10.970;2022-07-01T16:21:13;4.43;;;1.20;;
39822;SDS011;25499;53.958;10.970;2022-07-01T16:23:38;1.63;;;1.10;;
39822;SDS011;25499;53.958;10.970;2022-07-01T16:26:06;3.75;;;1.20;;
39822;SDS011;25499;53.958;10.970;2022-07-01T16:28:35;1.80;;;1.50;;
39822;SDS011;25499;53.958;10.970;2022-07-01T16:31:04;2.50;;;1.30;;
39822;SDS011;25499;53.958;10.970;2022-07-01T16:33:31;1.88;;;1.48;;
39822;SDS011;25499;53.958;10.970;2022-07-01T16:36:09;2.33;;;1.63;;
39822;SDS011;25499;53.958;10.970;2022-07-01T16:44:23;2.40;;;1.63;;
39822;SDS011;25499;53.958;10.970;2022-07-01T16:46:56;5.18;;;1.55;;
39822;SDS011;25499;53.958;10.970;2022-07-01T16:49:26;4.95;;;1.67;;
39822;SDS011;25499;53.958;10.970;2022-07-01T16:52:11;4.90;;;1.70;;
39822;SDS011;25499;53.958;10.970;2022-07-01T16:54:40;2.90;;;1.80;;
39822;SDS011;25499;53.958;10.970;2022-07-01T16:57:14;2.58;;;1.92;;
39822;SDS011;25499;53.958;10.970;2022-07-01T16:59:43;4.10;;;1.88;;
39822;SDS011;25499;53.958;10.970;2022-07-01T17:02:08;4.60;;;2.17;;
39822;SDS011;25499;53.958;10.970;2022-07-01T17:04:34;6.38;;;2.20;;
39822;SDS011;25499;53.958;10.970;2022-07-01T17:07:00;2.92;;;1.60;;
39822;SDS011;25499;53.958;10.970;2022-07-01T17:09:27;4.93;;;2.22;;
39822;SDS011;25499;53.958;10.970;2022-07-01T17:11:53;3.33;;;2.08;;
39822;SDS011;25499;53.958;10.970;2022-07-01T17:14:19;7.30;;;2.40;;
39822;SDS011;25499;53.958;10.970;2022-07-01T17:16:45;3.25;;;2.15;;
39822;SDS011;25499;53.958;10.970;2022-07-01T17:19:11;4.25;;;2.28;;
39822;SDS011;25499;53.958;10.970;2022-07-01T17:21:40;3.95;;;2.15;;
39822;SDS011;25499;53.958;10.970;2022-07-01T17:24:08;6.97;;;2.40;;
39822;SDS011;25499;53.958;10.970;2022-07-01T17:26:40;5.28;;;2.25;;
39822;SDS011;25499;53.958;10.970;2022-07-01T17:29:15;3.45;;;2.15;;
39822;SDS011;25499;53.958;10.970;2022-07-01T17:34:15;4.95;;;2.53;;
39822;SDS011;25499;53.958;10.970;2022-07-01T17:36:41;3.75;;;2.70;;
39822;SDS011;25499;53.958;10.970;2022-07-01T17:39:12;7.90;;;2.63;;
39822;SDS011;25499;53.958;10.970;2022-07-01T17:41:46;4.30;;;2.75;;
39822;SDS011;25499;53.958;10.970;2022-07-01T17:44:15;4.85;;;2.92;;
39822;SDS011;25499;53.958;10.970;2022-07-01T17:46:42;5.43;;;2.83;;
39822;SDS011;25499;53.958;10.970;2022-07-01T17:49:13;4.35;;;2.97;;
39822;SDS011;25499;53.958;10.970;2022-07-01T17:51:39;4.72;;;2.63;;
39822;SDS011;25499;53.958;10.970;2022-07-01T17:54:07;5.07;;;3.05;;
39822;SDS011;25499;53.958;10.970;2022-07-01T17:56:32;4.22;;;2.53;;
39822;SDS011;25499;53.958;10.970;2022-07-01T17:58:59;5.43;;;2.70;;
39822;SDS011;25499;53.958;10.970;2022-07-01T18:01:27;4.53;;;2.70;;
39822;SDS011;25499;53.958;10.970;2022-07-01T18:03:54;6.75;;;2.30;;
39822;SDS011;25499;53.958;10.970;2022-07-01T18:06:20;3.83;;;2.35;;
39822;SDS011;25499;53.958;10.970;2022-07-01T18:08:45;4.65;;;2.50;;
39822;SDS011;25499;53.958;10.970;2022-07-01T18:11:16;4.93;;;2.83;;
39822;SDS011;25499;53.958;10.970;2022-07-01T18:16:47;4.00;;;2.70;;
39822;SDS011;25499;53.958;10.970;2022-07-01T18:19:34;3.13;;;2.50;;
39822;SDS011;25499;53.958;10.970;2022-07-01T18:25:12;4.88;;;3.45;;
39822;SDS011;25499;53.958;10.970;2022-07-01T18:27:44;6.63;;;3.00;;
39822;SDS011;25499;53.958;10.970;2022-07-01T18:30:11;7.72;;;3.53;;
39822;SDS011;25499;53.958;10.970;2022-07-01T18:32:41;5.03;;;3.45;;
39822;SDS011;25499;53.958;10.970;2022-07-01T18:35:12;4.25;;;3.15;;
39822;SDS011;25499;53.958;10.970;2022-07-01T18:37:52;7.35;;;2.88;;
39822;SDS011;25499;53.958;10.970;2022-07-01T18:40:19;3.75;;;3.00;;
39822;SDS011;25499;53.958;10.970;2022-07-01T18:42:45;7.75;;;3.10;;
39822;SDS011;25499;53.958;10.970;2022-07-01T18:45:11;4.07;;;3.50;;
39822;SDS011;25499;53.958;10.970;2022-07-01T18:47:37;6.85;;;3.60;;
39822;SDS011;25499;53.958;10.970;2022-07-01T18:50:04;6.80;;;3.88;;
39822;SDS011;25499;53.958;10.970;2022-07-01T18:52:34;8.55;;;3.50;;
39822;SDS011;25499;53.958;10.970;2022-07-01T18:55:00;6.63;;;3.78;;
39822;SDS011;25499;53.958;10.970;2022-07-01T18:57:29;5.18;;;3.58;;
39822;SDS011;25499;53.958;10.970;2022-07-01T18:59:54;6.28;;;4.03;;
39822;SDS011;25499;53.958;10.970;2022-07-01T19:02:20;7.35;;;4.18;;
39822;SDS011;25499;53.958;10.970;2022-07-01T19:04:48;4.40;;;4.00;;
39822;SDS011;25499;53.958;10.970;2022-07-01T19:07:13;8.43;;;4.55;;
39822;SDS011;25499;53.958;10.970;2022-07-01T19:09:39;9.77;;;4.45;;
39822;SDS011;25499;53.958;10.970;2022-07-01T19:12:06;7.68;;;4.35;;
39822;SDS011;25499;53.958;10.970;2022-07-01T19:14:32;7.38;;;3.97;;
39822;SDS011;25499;53.958;10.970;2022-07-01T19:16:58;5.22;;;4.05;;
39822;SDS011;25499;53.958;10.970;2022-07-01T19:19:24;4.88;;;4.47;;
39822;SDS011;25499;53.958;10.970;2022-07-01T19:21:56;4.82;;;4.28;;
39822;SDS011;25499;53.958;10.970;2022-07-01T19:24:22;7.20;;;4.80;;
39822;SDS011;25499;53.958;10.970;2022-07-01T19:26:49;6.13;;;4.35;;
39822;SDS011;25499;53.958;10.970;2022-07-01T19:29:15;8.13;;;4.22;;
39822;SDS011;25499;53.958;10.970;2022-07-01T19:31:41;6.55;;;4.78;;
39822;SDS011;25499;53.958;10.970;2022-07-01T19:34:06;5.35;;;4.65;;
39822;SDS011;25499;53.958;10.970;2022-07-01T19:36:32;6.53;;;4.70;;
39822;SDS011;25499;53.958;10.970;2022-07-01T19:38:57;7.53;;;4.40;;
39822;SDS011;25499;53.958;10.970;2022-07-01T19:41:23;7.72;;;5.10;;
39822;SDS011;25499;53.958;10.970;2022-07-01T19:43:48;6.20;;;4.53;;
39822;SDS011;25499;53.958;10.970;2022-07-01T19:46:17;7.50;;;4.78;;
39822;SDS011;25499;53.958;10.970;2022-07-01T19:48:42;7.40;;;4.05;;
39822;SDS011;25499;53.958;10.970;2022-07-01T19:51:08;6.18;;;3.85;;
39822;SDS011;25499;53.958;10.970;2022-07-01T19:53:34;4.97;;;4.00;;
39822;SDS011;25499;53.958;10.970;2022-07-01T19:56:00;5.53;;;3.95;;
39822;SDS011;25499;53.958;10.970;2022-07-01T19:58:26;8.15;;;3.90;;
39822;SDS011;25499;53.958;10.970;2022-07-01T20:00:53;6.20;;;4.00;;
39822;SDS011;25499;53.958;10.970;2022-07-01T20:03:20;6.18;;;3.55;;
39822;SDS011;25499;53.958;10.970;2022-07-01T20:05:46;5.53;;;3.42;;
39822;SDS011;25499;53.958;10.970;2022-07-01T20:08:12;7.25;;;3.33;;
39822;SDS011;25499;53.958;10.970;2022-07-01T20:10:39;6.70;;;3.55;;
39822;SDS011;25499;53.958;10.970;2022-07-01T20:13:06;4.78;;;3.00;;
39822;SDS011;25499;53.958;10.970;2022-07-01T20:15:33;8.30;;;3.67;;
39822;SDS011;25499;53.958;10.970;2022-07-01T20:17:58;8.13;;;3.90;;
39822;SDS011;25499;53.958;10.970;2022-07-01T20:20:24;7.93;;;3.53;;
39822;SDS011;25499;53.958;10.970;2022-07-01T20:22:49;6.03;;;3.70;;
